createdAt,value
2018-10-21T00:00:15.229Z,103031.35
2018-10-21T00:04:19.033Z,103026.01
2018-10-21T00:08:22.841Z,103015.86
2018-10-21T00:12:26.614Z,103011.15
2018-10-21T00:16:31.428Z,103005.87
2018-10-21T00:20:35.254Z,103006.80
2018-10-21T00:24:39.049Z,102999.77
2018-10-21T00:28:42.837Z,103000.68
2018-10-21T00:32:47.856Z,102985.91
2018-10-21T00:36:51.957Z,102985.98
2018-10-21T00:40:55.769Z,102987.70
2018-10-21T00:45:00.258Z,102978.63
2018-10-21T00:49:05.164Z,102979.88
2018-10-21T00:53:08.972Z,102974.62
2018-10-21T00:57:12.902Z,102974.21
2018-10-21T01:01:16.657Z,102981.31
2018-10-21T01:05:20.510Z,102972.13
2018-10-21T01:09:25.356Z,102973.50
2018-10-21T01:13:29.210Z,102972.66
2018-10-21T01:17:33.005Z,102970.48
2018-10-21T01:21:37.312Z,102973.65
2018-10-21T01:25:41.594Z,102975.41
2018-10-21T01:29:47.088Z,102971.88
2018-10-21T01:33:50.885Z,102973.65
2018-10-21T01:37:54.747Z,102969.70
2018-10-21T01:41:58.510Z,102974.08
2018-10-21T01:46:04.197Z,102975.39
2018-10-21T01:50:07.972Z,102970.10
2018-10-21T01:54:12.000Z,102970.97
2018-10-21T01:58:15.816Z,102965.69
2018-10-21T02:02:19.625Z,102969.16
2018-10-21T02:06:23.478Z,102975.22
2018-10-21T02:10:27.433Z,102980.48
2018-10-21T02:14:31.257Z,102975.21
2018-10-21T02:18:35.155Z,102971.80
2018-10-21T02:22:39.339Z,102965.80
2018-10-21T02:26:43.117Z,102965.61
2018-10-21T02:30:47.917Z,102966.98
2018-10-21T02:34:52.149Z,102964.22
2018-10-21T02:38:55.952Z,102963.70
2018-10-21T02:43:00.006Z,102968.44
2018-10-21T02:47:04.497Z,102966.67
2018-10-21T02:51:08.477Z,102954.89
2018-10-21T02:55:13.117Z,102947.52
2018-10-21T02:59:16.958Z,102949.69
2018-10-21T03:03:20.766Z,102952.27
2018-10-21T03:07:24.548Z,102947.40
2018-10-21T03:11:28.379Z,102947.77
2018-10-21T03:15:32.165Z,102949.06
2018-10-21T03:19:36.002Z,102946.92
2018-10-21T03:23:40.056Z,102946.89
2018-10-21T03:27:43.908Z,102949.44
2018-10-21T03:31:47.709Z,102934.52
2018-10-21T03:35:51.563Z,102941.50
2018-10-21T03:39:55.347Z,102940.18
2018-10-21T03:43:59.121Z,102937.09
2018-10-21T03:48:02.933Z,102935.84
2018-10-21T03:52:06.815Z,102932.38
2018-10-21T03:56:10.804Z,102928.05
2018-10-21T04:00:14.741Z,102927.30
2018-10-21T04:04:18.695Z,102923.03
2018-10-21T04:08:22.373Z,102920.46
2018-10-21T04:12:26.497Z,102916.12
2018-10-21T04:16:30.272Z,102915.41
2018-10-21T04:20:34.240Z,102921.58
2018-10-21T04:24:38.014Z,102920.67
2018-10-21T04:28:41.957Z,102919.80
2018-10-21T04:32:46.522Z,102911.85
2018-10-21T04:36:50.524Z,102906.16
2018-10-21T04:40:54.437Z,102904.43
2018-10-21T04:44:58.740Z,102905.35
2018-10-21T04:49:02.554Z,102902.33
2018-10-21T04:53:06.436Z,102894.97
2018-10-21T04:57:10.236Z,102896.34
2018-10-21T05:01:14.039Z,102897.25
2018-10-21T05:05:17.865Z,102896.76
2018-10-21T05:09:22.174Z,102891.21
2018-10-21T05:13:26.139Z,102894.77
2018-10-21T05:17:30.369Z,102887.00
2018-10-21T05:21:34.121Z,102886.20
2018-10-21T05:25:38.286Z,102877.97
2018-10-21T05:29:42.252Z,102879.81
2018-10-21T05:33:46.045Z,102874.66
2018-10-21T05:37:49.922Z,102869.92
2018-10-21T05:41:53.676Z,102872.14
2018-10-21T05:45:57.842Z,102867.34
2018-10-21T05:50:01.662Z,102872.14
2018-10-21T05:54:06.077Z,102873.85
2018-10-21T05:58:09.906Z,102867.69
2018-10-21T06:02:13.974Z,102875.56
2018-10-21T06:06:17.800Z,102875.12
2018-10-21T06:10:22.094Z,102883.45
2018-10-21T06:14:25.924Z,102892.22
2018-10-21T06:18:29.718Z,102883.44
2018-10-21T06:22:40.398Z,102887.84
2018-10-21T06:26:44.256Z,102888.23
2018-10-21T06:30:48.085Z,102893.44
2018-10-21T06:34:52.180Z,102896.86
2018-10-21T06:38:56.000Z,102896.81
2018-10-21T06:42:59.836Z,102904.59
2018-10-21T06:47:04.962Z,102902.82
2018-10-21T06:51:08.883Z,102901.89
2018-10-21T06:55:13.430Z,102904.55
2018-10-21T06:59:17.182Z,102904.81
2018-10-21T07:03:20.986Z,102915.72
2018-10-21T07:07:24.821Z,102911.85
2018-10-21T07:11:28.666Z,102920.14
2018-10-21T07:15:32.457Z,102924.09
2018-10-21T07:19:36.622Z,102921.52
2018-10-21T07:23:40.608Z,102929.34
2018-10-21T07:27:44.428Z,102930.12
2018-10-21T07:31:48.185Z,102933.66
2018-10-21T07:35:52.053Z,102936.89
2018-10-21T07:39:55.883Z,102941.09
2018-10-21T07:43:59.714Z,102938.25
2018-10-21T07:48:03.829Z,102942.67
2018-10-21T07:52:07.916Z,102949.74
2018-10-21T07:56:11.713Z,102951.22
2018-10-21T08:00:15.713Z,102948.05
2018-10-21T08:04:19.452Z,102953.32
2018-10-21T08:08:24.452Z,102952.08
2018-10-21T08:12:28.241Z,102953.98
2018-10-21T08:16:32.128Z,102957.55
2018-10-21T08:20:36.344Z,102957.41
2018-10-21T08:24:40.130Z,102961.80
2018-10-21T08:28:44.270Z,102951.45
2018-10-21T08:32:48.120Z,102961.13
2018-10-21T08:36:51.966Z,102960.64
2018-10-21T08:40:55.873Z,102958.36
2018-10-21T08:44:59.792Z,102953.97
2018-10-21T08:49:05.007Z,102951.25
2018-10-21T08:53:08.789Z,102949.91
2018-10-21T08:57:12.557Z,102941.23
2018-10-21T09:01:16.497Z,102942.88
2018-10-21T09:05:20.221Z,102942.98
2018-10-21T09:09:24.048Z,102941.52
2018-10-21T09:13:27.870Z,102940.09
2018-10-21T09:17:32.019Z,102940.84
2018-10-21T09:21:35.805Z,102950.36
2018-10-21T09:25:39.852Z,102948.13
2018-10-21T09:29:43.681Z,102940.12
2018-10-21T09:33:47.478Z,102942.69
2018-10-21T09:37:51.273Z,102945.01
2018-10-21T09:41:55.072Z,102940.16
2018-10-21T09:45:58.934Z,102943.23
2018-10-21T09:50:02.822Z,102930.39
2018-10-21T09:54:06.983Z,102931.61
2018-10-21T09:58:10.871Z,102925.30
2018-10-21T10:02:21.050Z,102923.59
2018-10-21T10:06:24.890Z,102921.31
2018-10-21T10:10:28.752Z,102917.69
2018-10-21T10:14:32.590Z,102913.58
2018-10-21T10:18:36.449Z,102900.23
2018-10-21T10:22:40.334Z,102905.23
2018-10-21T10:26:44.220Z,102898.42
2018-10-21T10:30:48.026Z,102889.84
2018-10-21T10:34:51.905Z,102893.12
2018-10-21T10:38:56.017Z,102885.34
2018-10-21T10:42:59.871Z,102888.94
2018-10-21T10:47:03.727Z,102879.61
2018-10-21T10:51:22.407Z,102874.64
2018-10-21T10:55:30.409Z,102871.34
2018-10-21T10:59:34.424Z,102864.70
2018-10-21T11:03:38.225Z,102850.64
2018-10-21T11:07:42.062Z,102851.76
2018-10-21T11:11:45.920Z,102845.23
2018-10-21T11:15:49.670Z,102841.16
2018-10-21T11:19:53.507Z,102837.44
2018-10-21T11:28:08.467Z,102821.48
2018-10-21T11:32:12.180Z,102821.09
2018-10-21T11:36:16.065Z,102820.89
2018-10-21T11:40:19.997Z,102818.89
2018-10-21T11:44:23.653Z,102816.78
2018-10-21T11:48:27.460Z,102811.41
2018-10-21T11:52:31.269Z,102811.02
2018-10-21T11:56:37.561Z,102793.53
2018-10-21T12:00:41.865Z,102789.95
2018-10-21T12:04:46.090Z,102780.40
2018-10-21T12:08:49.984Z,102769.27
2018-10-21T12:12:54.099Z,102769.92
2018-10-21T12:16:57.860Z,102773.00
2018-10-21T12:21:01.685Z,102761.68
2018-10-21T12:25:05.931Z,102758.14
2018-10-21T12:29:09.761Z,102757.11
2018-10-21T12:33:13.567Z,102754.06
2018-10-21T12:37:17.478Z,102748.91
2018-10-21T12:41:22.202Z,102748.71
2018-10-21T12:45:26.060Z,102747.55
2018-10-21T12:49:30.128Z,102746.45
2018-10-21T12:53:33.959Z,102749.05
2018-10-21T12:57:37.837Z,102738.64
2018-10-21T13:01:42.037Z,102733.88
2018-10-21T13:05:45.808Z,102720.14
2018-10-21T13:09:49.882Z,102720.42
2018-10-21T13:13:53.737Z,102718.54
2018-10-21T13:17:57.865Z,102704.67
2018-10-21T13:22:01.859Z,102708.23
2018-10-21T13:26:05.677Z,102707.28
2018-10-21T13:30:09.489Z,102696.33
2018-10-21T13:34:13.682Z,102699.60
2018-10-21T13:38:17.466Z,102694.55
2018-10-21T13:42:21.244Z,102694.02
2018-10-21T13:46:25.182Z,102691.62
2018-10-21T13:50:29.120Z,102684.25
2018-10-21T13:54:32.902Z,102674.02
2018-10-21T13:58:38.134Z,102674.02
2018-10-21T14:02:41.929Z,102676.78
2018-10-21T14:06:45.998Z,102663.42
2018-10-21T14:10:49.769Z,102663.48
2018-10-21T14:14:53.589Z,102665.32
2018-10-21T14:18:57.449Z,102669.11
2018-10-21T14:23:01.340Z,102666.30
2018-10-21T14:27:05.295Z,102667.73
2018-10-21T14:31:09.234Z,102666.00
2018-10-21T14:35:13.071Z,102662.41
2018-10-21T14:39:17.041Z,102654.65
2018-10-21T14:43:20.785Z,102654.80
2018-10-21T14:47:24.572Z,102662.15
2018-10-21T14:51:28.362Z,102658.53
2018-10-21T14:55:32.214Z,102651.02
2018-10-21T14:59:36.065Z,102647.70
2018-10-21T15:03:39.943Z,102645.88
2018-10-21T15:07:45.717Z,102641.89
2018-10-21T15:11:49.593Z,102637.52
2018-10-21T15:15:53.677Z,102633.22
2018-10-21T15:19:57.486Z,102631.16
2018-10-21T15:24:02.390Z,102622.97
2018-10-21T15:28:06.283Z,102625.53
2018-10-21T15:32:10.068Z,102624.89
2018-10-21T15:36:13.858Z,102618.91
2018-10-21T15:40:17.784Z,102615.34
2018-10-21T15:44:21.913Z,102616.92
2018-10-21T15:48:25.951Z,102615.97
2018-10-21T15:52:29.799Z,102615.24
2018-10-21T15:56:33.688Z,102613.97
2018-10-21T16:00:37.503Z,102607.61
2018-10-21T16:04:41.374Z,102608.41
2018-10-21T16:08:45.141Z,102610.49
2018-10-21T16:12:49.320Z,102611.83
2018-10-21T16:16:53.174Z,102611.52
2018-10-21T16:20:57.037Z,102604.52
2018-10-21T16:25:00.960Z,102607.20
2018-10-21T16:29:05.232Z,102613.02
2018-10-21T16:33:09.107Z,102618.59
2018-10-21T16:37:13.031Z,102619.73
2018-10-21T16:41:16.878Z,102614.34
2018-10-21T16:45:20.668Z,102623.64
2018-10-21T16:49:24.513Z,102622.98
2018-10-21T16:53:28.419Z,102615.66
2018-10-21T16:57:32.194Z,102624.95
2018-10-21T17:01:35.968Z,102620.58
2018-10-21T17:05:41.197Z,102620.86
2018-10-21T17:09:45.177Z,102618.27
2018-10-21T17:13:48.773Z,102615.80
2018-10-21T17:17:52.549Z,102612.64
2018-10-21T17:21:56.443Z,102616.63
2018-10-21T17:26:00.201Z,102610.58
2018-10-21T17:30:04.320Z,102602.00
2018-10-21T17:34:08.300Z,102600.63
2018-10-21T17:38:12.031Z,102598.29
2018-10-21T17:42:16.164Z,102606.92
2018-10-21T17:46:20.094Z,102608.83
2018-10-21T17:50:23.897Z,102607.64
2018-10-21T17:54:27.827Z,102615.50
2018-10-21T17:58:31.949Z,102609.17
2018-10-21T18:02:36.284Z,102607.69
2018-10-21T18:06:40.409Z,102604.05
2018-10-21T18:10:44.261Z,102612.27
2018-10-21T18:14:48.394Z,102607.20
2018-10-21T18:18:53.043Z,102603.97
2018-10-21T18:22:56.981Z,102606.11
2018-10-21T18:27:00.866Z,102609.50
2018-10-21T18:31:05.551Z,102606.70
2018-10-21T18:35:11.250Z,102605.38
2018-10-21T18:39:15.169Z,102607.22
2018-10-21T18:43:19.225Z,102601.19
2018-10-21T18:47:22.948Z,102601.91
2018-10-21T18:51:27.017Z,102608.73
2018-10-21T18:55:30.919Z,102612.05
2018-10-21T18:59:35.249Z,102609.05
2018-10-21T19:03:39.180Z,102616.36
2018-10-21T19:07:42.929Z,102617.98
2018-10-21T19:11:46.750Z,102623.97
2018-10-21T19:15:50.625Z,102636.37
2018-10-21T19:19:54.856Z,102634.51
2018-10-21T19:23:58.615Z,102639.48
2018-10-21T19:28:02.709Z,102639.75
2018-10-21T19:32:06.465Z,102628.94
2018-10-21T19:36:10.452Z,102627.86
2018-10-21T19:40:15.435Z,102628.03
2018-10-21T19:44:19.507Z,102627.13
2018-10-21T19:48:23.455Z,102620.02
2018-10-21T19:52:27.370Z,102619.52
2018-10-21T19:56:32.033Z,102620.94
2018-10-21T20:00:36.269Z,102611.67
2018-10-21T20:04:41.057Z,102619.92
2018-10-21T20:08:44.886Z,102624.45
2018-10-21T20:12:48.813Z,102624.88
2018-10-21T20:16:52.982Z,102620.22
2018-10-21T20:20:56.796Z,102628.36
2018-10-21T20:25:00.703Z,102634.55
2018-10-21T20:29:05.245Z,102629.17
2018-10-21T20:33:09.148Z,102631.81
2018-10-21T20:37:12.917Z,102638.36
2018-10-21T20:41:16.693Z,102639.45
2018-10-21T20:45:20.553Z,102636.08
2018-10-21T20:49:24.467Z,102634.98
2018-10-21T20:53:29.415Z,102643.66
2018-10-21T20:57:33.758Z,102644.98
2018-10-21T21:01:37.856Z,102649.92
2018-10-21T21:05:41.988Z,102648.64
2018-10-21T21:09:45.812Z,102632.55
2018-10-21T21:13:49.614Z,102636.52
2018-10-21T21:17:53.460Z,102644.33
2018-10-21T21:21:57.361Z,102644.29
2018-10-21T21:26:01.166Z,102636.40
2018-10-21T21:30:06.324Z,102638.03
2018-10-21T21:34:10.459Z,102638.09
2018-10-21T21:38:14.185Z,102637.80
2018-10-21T21:42:18.047Z,102638.55
2018-10-21T21:46:21.908Z,102634.10
2018-10-21T21:50:25.940Z,102640.52
2018-10-21T21:54:29.995Z,102646.61
2018-10-21T21:58:33.827Z,102639.43
2018-10-21T22:02:37.692Z,102643.52
2018-10-21T22:06:41.790Z,102648.38
2018-10-21T22:10:45.633Z,102649.86
2018-10-21T22:14:49.454Z,102661.73
2018-10-21T22:18:54.238Z,102656.89
2018-10-21T22:22:58.057Z,102656.22
2018-10-21T22:27:01.811Z,102660.41
2018-10-21T22:31:05.595Z,102654.46
2018-10-21T22:35:10.157Z,102651.22
2018-10-21T22:39:13.970Z,102642.73
2018-10-21T22:43:18.061Z,102638.38
2018-10-21T22:47:22.111Z,102635.48
2018-10-21T22:51:25.998Z,102635.33
2018-10-21T22:55:29.960Z,102639.75
2018-10-21T22:59:33.854Z,102652.81
2018-10-21T23:03:37.840Z,102653.61
2018-10-21T23:07:42.132Z,102658.58
2018-10-21T23:11:46.126Z,102662.79
2018-10-21T23:15:50.173Z,102659.65
2018-10-21T23:19:54.709Z,102656.02
2018-10-21T23:23:58.745Z,102653.05
2018-10-21T23:28:03.780Z,102652.37
2018-10-21T23:32:07.802Z,102651.41
2018-10-21T23:36:12.262Z,102654.37
2018-10-21T23:40:16.376Z,102658.80
2018-10-21T23:44:20.667Z,102656.44
2018-10-21T23:48:24.704Z,102650.36
2018-10-21T23:52:29.044Z,102646.77
2018-10-21T23:56:33.959Z,102646.80
